createdAt,value
2023-04-30T00:02:41.555Z,69.87
2023-04-30T00:07:41.434Z,70.11
2023-04-30T00:12:34.921Z,71.17
2023-04-30T00:23:06.062Z,73.18
2023-04-30T00:27:59.611Z,72.91
2023-04-30T00:32:57.349Z,73.84
2023-04-30T00:37:50.736Z,74.90
2023-04-30T00:42:44.179Z,74.97
2023-04-30T00:47:37.836Z,75.20
2023-04-30T00:52:39.577Z,74.14
2023-04-30T00:57:57.020Z,74.00
2023-04-30T01:03:04.001Z,75.33
2023-04-30T01:08:19.750Z,74.90
2023-04-30T01:13:22.005Z,76.00
2023-04-30T01:18:20.053Z,75.61
2023-04-30T01:23:45.282Z,75.42
2023-04-30T01:28:50.540Z,76.01
2023-04-30T01:33:49.931Z,76.42
2023-04-30T01:38:57.737Z,76.98
2023-04-30T01:44:02.789Z,76.49
2023-04-30T01:49:10.510Z,76.51
2023-04-30T01:54:11.118Z,76.39
2023-04-30T01:59:06.450Z,77.54
2023-04-30T02:04:00.224Z,78.15
2023-04-30T02:08:53.862Z,77.75
2023-04-30T02:13:50.250Z,78.10
2023-04-30T02:18:46.612Z,78.00
2023-04-30T02:23:40.274Z,77.56
2023-04-30T02:28:34.644Z,76.45
2023-04-30T02:33:27.978Z,76.95
2023-04-30T02:38:23.042Z,77.85
2023-04-30T02:43:19.582Z,78.11
2023-04-30T02:48:27.436Z,78.99
2023-04-30T02:53:25.342Z,79.51
2023-04-30T02:58:19.259Z,79.54
2023-04-30T03:03:24.466Z,79.65
2023-04-30T03:08:46.912Z,80.06
2023-04-30T03:14:15.386Z,80.40
2023-04-30T03:19:26.875Z,80.69
2023-04-30T03:24:27.243Z,80.31
2023-04-30T03:29:22.674Z,80.49
2023-04-30T03:35:07.877Z,80.26
2023-04-30T03:40:21.461Z,80.72
2023-04-30T03:45:18.556Z,80.48
2023-04-30T03:50:13.260Z,79.85
2023-04-30T03:55:08.449Z,80.08
2023-04-30T04:00:02.294Z,79.43
2023-04-30T04:05:08.457Z,78.89
2023-04-30T04:10:11.218Z,78.79
2023-04-30T04:15:07.157Z,79.05
2023-04-30T04:20:06.242Z,79.42
2023-04-30T04:25:02.997Z,78.54
2023-04-30T04:29:58.393Z,79.16
2023-04-30T04:34:58.661Z,79.80
2023-04-30T04:39:55.361Z,80.13
2023-04-30T04:44:53.417Z,80.29
2023-04-30T04:49:46.703Z,80.51
2023-04-30T04:54:40.416Z,80.46
2023-04-30T04:59:33.929Z,79.37
2023-04-30T05:04:32.220Z,76.97
2023-04-30T05:09:28.413Z,74.66
2023-04-30T05:14:22.408Z,74.58
2023-04-30T05:19:16.211Z,73.83
2023-04-30T05:24:10.991Z,72.45
2023-04-30T05:29:04.422Z,71.95
2023-04-30T05:33:57.994Z,72.38
2023-04-30T05:38:51.850Z,74.01
2023-04-30T05:43:49.962Z,70.96
2023-04-30T05:48:43.356Z,67.47
2023-04-30T05:53:36.550Z,62.17
2023-04-30T05:58:29.664Z,61.95
2023-04-30T06:03:24.151Z,60.45
2023-04-30T06:08:17.432Z,60.79
2023-04-30T06:13:11.776Z,58.98
2023-04-30T06:18:05.222Z,58.90
2023-04-30T06:23:00.233Z,58.15
2023-04-30T06:27:54.254Z,54.85
2023-04-30T06:32:50.556Z,55.70
2023-04-30T06:37:43.846Z,56.79
2023-04-30T06:42:38.748Z,57.54
2023-04-30T06:47:38.471Z,55.30
2023-04-30T06:52:32.175Z,56.98
2023-04-30T06:57:25.900Z,58.01
2023-04-30T07:02:22.056Z,58.85
2023-04-30T07:07:15.548Z,59.84
2023-04-30T07:12:08.934Z,61.18
2023-04-30T07:17:02.006Z,60.39
2023-04-30T07:21:56.748Z,63.28
2023-04-30T07:26:50.116Z,59.92
2023-04-30T07:31:43.269Z,58.60
2023-04-30T07:36:38.707Z,54.82
2023-04-30T07:41:33.605Z,56.47
2023-04-30T07:46:27.002Z,54.55
2023-04-30T07:51:20.308Z,52.26
2023-04-30T07:56:13.777Z,53.10
2023-04-30T08:01:08.497Z,48.71
2023-04-30T08:06:12.093Z,47.63
2023-04-30T08:11:05.351Z,48.15
2023-04-30T08:15:58.612Z,48.68
2023-04-30T08:20:55.976Z,47.37
2023-04-30T08:25:49.154Z,45.90
2023-04-30T08:30:44.838Z,45.97
2023-04-30T08:35:38.157Z,42.41
2023-04-30T08:40:50.477Z,38.64
2023-04-30T08:45:44.733Z,38.84
2023-04-30T08:50:40.109Z,40.20
2023-04-30T08:55:35.718Z,34.68
2023-04-30T09:00:29.172Z,33.27
2023-04-30T09:05:22.736Z,33.03
2023-04-30T09:10:16.926Z,32.61
2023-04-30T09:15:13.151Z,33.10
2023-04-30T09:20:11.262Z,33.71
2023-04-30T09:25:05.266Z,31.95
2023-04-30T09:29:58.666Z,31.29
2023-04-30T09:34:53.305Z,29.83
2023-04-30T09:39:51.810Z,30.83
2023-04-30T09:44:45.187Z,32.82
2023-04-30T09:49:41.949Z,31.40
2023-04-30T09:54:37.799Z,31.76
2023-04-30T09:59:32.298Z,33.74
2023-04-30T10:04:26.300Z,34.50
2023-04-30T10:09:30.023Z,33.27
2023-04-30T10:14:34.485Z,33.76
2023-04-30T10:19:33.181Z,31.06
2023-04-30T10:24:26.718Z,29.91
2023-04-30T10:35:28.003Z,28.76
2023-04-30T10:40:26.743Z,30.92
2023-04-30T10:45:52.816Z,30.29
2023-04-30T10:51:13.036Z,28.99
2023-04-30T10:56:09.266Z,26.46
2023-04-30T11:01:08.974Z,27.55
2023-04-30T11:06:04.062Z,26.60
2023-04-30T11:11:01.935Z,25.34
2023-04-30T11:15:55.572Z,26.10
2023-04-30T11:21:16.354Z,22.06
2023-04-30T11:26:12.268Z,22.36
2023-04-30T11:31:06.165Z,23.85
2023-04-30T11:36:02.133Z,25.87
2023-04-30T11:40:58.134Z,22.57
2023-04-30T11:46:08.911Z,21.00
2023-04-30T11:51:05.758Z,22.66
2023-04-30T11:56:04.163Z,20.47
2023-04-30T12:01:03.688Z,20.09
2023-04-30T12:05:56.912Z,20.89
2023-04-30T12:10:55.216Z,21.56
2023-04-30T12:16:03.460Z,20.70
2023-04-30T12:20:56.929Z,20.76
2023-04-30T12:25:53.358Z,21.77
2023-04-30T12:30:54.520Z,20.66
2023-04-30T12:35:54.476Z,19.09
2023-04-30T12:40:49.497Z,21.56
2023-04-30T12:45:52.153Z,20.26
2023-04-30T12:50:50.580Z,19.86
2023-04-30T12:55:47.204Z,21.35
2023-04-30T13:00:49.047Z,19.85
2023-04-30T13:05:42.975Z,20.87
2023-04-30T13:10:38.309Z,19.94
2023-04-30T13:15:33.046Z,20.38
2023-04-30T13:20:26.620Z,20.86
2023-04-30T13:25:20.000Z,20.78
2023-04-30T13:30:13.761Z,20.31
2023-04-30T13:35:10.374Z,19.59
2023-04-30T13:40:04.266Z,20.49
2023-04-30T13:45:00.230Z,20.18
2023-04-30T13:50:01.513Z,19.84
2023-04-30T13:54:57.440Z,19.79
2023-04-30T14:00:02.475Z,19.75
2023-04-30T14:05:06.426Z,19.65
2023-04-30T14:10:01.545Z,21.20
2023-04-30T14:14:55.660Z,19.42
2023-04-30T14:19:49.149Z,19.49
2023-04-30T14:24:42.572Z,20.37
2023-04-30T14:29:37.387Z,20.09
2023-04-30T14:34:30.802Z,20.51
2023-04-30T14:39:24.008Z,20.28
2023-04-30T14:44:17.425Z,19.95
2023-04-30T14:49:12.469Z,20.43
2023-04-30T14:54:05.876Z,22.04
2023-04-30T14:59:02.737Z,24.25
2023-04-30T15:03:55.972Z,26.10
2023-04-30T15:08:52.899Z,27.25
2023-04-30T15:13:48.213Z,29.20
2023-04-30T15:18:41.597Z,28.97
2023-04-30T15:23:35.810Z,31.14
2023-04-30T15:28:33.785Z,29.91
2023-04-30T15:33:31.245Z,32.60
2023-04-30T15:38:24.758Z,30.98
2023-04-30T15:43:19.878Z,32.24
2023-04-30T15:48:25.685Z,32.87
2023-04-30T15:53:19.179Z,33.78
2023-04-30T15:58:13.239Z,34.07
2023-04-30T16:03:06.918Z,33.88
2023-04-30T16:08:01.786Z,33.49
2023-04-30T16:12:54.954Z,33.96
2023-04-30T16:17:48.255Z,34.54
2023-04-30T16:22:41.398Z,35.04
2023-04-30T16:27:37.515Z,35.34
2023-04-30T16:32:31.573Z,36.36
2023-04-30T16:37:24.850Z,36.60
2023-04-30T16:42:21.102Z,37.59
2023-04-30T16:47:17.366Z,37.63
2023-04-30T16:52:14.029Z,38.24
2023-04-30T16:57:09.614Z,38.73
2023-04-30T17:02:06.695Z,39.22
2023-04-30T17:07:02.605Z,39.84
2023-04-30T17:12:00.914Z,39.93
2023-04-30T17:16:54.272Z,41.70
2023-04-30T17:21:53.599Z,41.95
2023-04-30T17:26:51.539Z,41.85
2023-04-30T17:31:47.547Z,42.47
2023-04-30T17:36:44.757Z,42.77
2023-04-30T17:41:51.766Z,44.27
2023-04-30T17:52:55.879Z,45.42
2023-04-30T17:57:54.392Z,44.49
2023-04-30T18:02:51.888Z,44.71
2023-04-30T18:08:14.497Z,45.40
2023-04-30T18:13:12.761Z,46.20
2023-04-30T18:18:11.080Z,46.35
2023-04-30T18:23:08.436Z,47.12
2023-04-30T18:28:03.925Z,46.71
2023-04-30T18:32:58.384Z,46.58
2023-04-30T18:43:25.837Z,47.74
2023-04-30T18:48:52.702Z,47.87
2023-04-30T18:54:02.109Z,47.43
2023-04-30T18:59:01.614Z,48.04
2023-04-30T19:04:00.074Z,47.52
2023-04-30T19:09:01.773Z,46.54
2023-04-30T19:13:59.863Z,46.91
2023-04-30T19:18:53.537Z,48.07
2023-04-30T19:23:47.150Z,48.22
2023-04-30T19:28:42.114Z,48.48
2023-04-30T19:33:39.489Z,48.05
2023-04-30T19:38:32.974Z,49.03
2023-04-30T19:43:26.909Z,49.28
2023-04-30T19:48:57.414Z,49.78
2023-04-30T19:53:52.264Z,51.04
2023-04-30T19:58:49.021Z,51.90
2023-04-30T20:03:54.546Z,52.29
2023-04-30T20:09:26.619Z,52.73
2023-04-30T20:14:26.394Z,52.75
2023-04-30T20:27:11.271Z,55.54
2023-04-30T20:32:12.627Z,55.27
2023-04-30T20:37:11.440Z,54.75
2023-04-30T20:42:19.291Z,55.09
2023-04-30T20:47:25.971Z,55.99
2023-04-30T20:52:25.992Z,58.49
2023-04-30T20:57:19.497Z,60.60
2023-04-30T21:02:12.891Z,60.33
2023-04-30T21:07:07.946Z,59.94
2023-04-30T21:12:01.499Z,61.22
2023-04-30T21:16:54.724Z,60.68
2023-04-30T21:21:47.903Z,60.11
2023-04-30T21:26:45.408Z,59.97
2023-04-30T21:31:38.642Z,60.61
2023-04-30T21:36:35.536Z,59.95
2023-04-30T21:41:30.394Z,59.77
2023-04-30T21:46:25.661Z,59.86
2023-04-30T21:51:19.029Z,60.23
2023-04-30T21:56:13.155Z,60.17
2023-04-30T22:01:06.815Z,60.06
2023-04-30T22:06:02.035Z,60.20
2023-04-30T22:10:59.048Z,59.51
2023-04-30T22:15:52.706Z,60.66
2023-04-30T22:20:46.067Z,61.23
2023-04-30T22:25:40.872Z,62.11
2023-04-30T22:30:34.403Z,63.09
2023-04-30T22:35:28.907Z,63.27
2023-04-30T22:40:23.533Z,63.16
2023-04-30T22:45:18.615Z,61.16
2023-04-30T22:50:12.048Z,61.74
2023-04-30T22:55:06.894Z,61.21
2023-04-30T23:00:00.583Z,61.42
2023-04-30T23:04:55.550Z,61.55
2023-04-30T23:09:51.388Z,63.29
2023-04-30T23:14:46.801Z,65.26
2023-04-30T23:19:40.178Z,65.65
2023-04-30T23:24:37.555Z,65.68
2023-04-30T23:29:30.823Z,65.80
2023-04-30T23:34:27.472Z,65.96
2023-04-30T23:39:35.544Z,67.16
2023-04-30T23:44:32.319Z,67.45
2023-04-30T23:49:28.330Z,67.19
2023-04-30T23:54:22.494Z,67.70
2023-04-30T23:59:16.275Z,67.28
